Date,TemperatureHighF,TemperatureAvgF,TemperatureLowF,DewpointHighF,DewpointAvgF,DewpointLowF,HumidityHigh,HumidityAvg,HumidityLow,PressureMaxIn,PressureMinIn,WindSpeedMaxMPH,WindSpeedAvgMPH,GustSpeedMaxMPH,PrecipitationSumIn
2013-5-1,66,48,31,38,24,14,73,45,15,30.49,30.33,10,2,10,0.00
2013-5-2,75,56,38,44,31,24,72,43,17,30.51,30.15,15,2,15,0.00
2013-5-3,54,52,49,45,37,32,70,58,49,30.18,30.15,8,2,8,0.00
2013-5-5,81,62,46,50,36,27,69,44,14,29.99,29.73,6,2,14,0.00
2013-5-6,87,65,47,51,37,26,65,41,11,29.83,29.59,7,2,14,0.00
2013-5-7,91,69,49,58,42,35,73,42,15,29.73,29.63,5,1,13,0.00
2013-5-8,91,70,52,56,46,40,75,48,17,29.87,29.73,4,1,14,0.00
2013-5-9,92,70,50,52,38,20,65,38,9,29.98,29.84,6,2,18,0.00
2013-5-10,92,70,50,50,38,31,60,34,13,30.04,29.91,7,2,21,0.00
2013-5-11,89,71,56,63,44,35,66,41,16,29.99,29.83,10,1,13,0.00
2013-5-12,76,67,59,52,46,40,74,50,29,29.91,29.83,24,4,24,0.00
2013-5-13,68,57,44,53,44,29,89,63,37,30.03,29.76,26,2,26,0.00
2013-5-14,66,54,42,38,32,17,81,47,16,30.08,29.94,18,2,18,0.00
2013-5-15,71,57,41,48,36,29,77,49,24,30.00,29.79,9,1,9,0.00
2013-5-16,74,60,51,50,45,37,90,61,29,29.86,29.72,16,2,16,0.00
2013-5-17,70,59,48,53,44,39,81,60,34,29.85,29.75,14,1,14,0.00
2013-5-18,69,58,46,46,38,30,83,52,26,30.08,29.85,24,2,24,0.00
2013-5-19,73,57,42,44,39,32,87,55,26,30.16,30.08,24,2,24,0.00
2013-5-20,50,46,44,41,39,37,81,75,68,30.18,30.16,11,3,11,0.00
2013-5-21,91,70,50,56,40,20,71,40,9,29.98,29.76,6,2,14,0.00
2013-5-22,92,69,50,52,37,30,63,37,11,30.04,29.84,5,2,18,0.00
2013-5-23,92,73,56,50,41,34,58,34,13,29.99,29.87,7,2,21,0.00
2013-5-24,89,61,44,63,45,37,89,60,16,29.91,29.83,7,1,13,0.00
2013-5-25,66,54,42,50,40,34,87,63,34,29.93,29.84,11,2,11,0.00
2013-5-26,68,56,45,50,44,40,86,67,40,29.89,29.80,10,1,10,0.00
2013-5-27,62,53,44,52,44,-100,97,75,49,29.83,29.68,13,2,13,0.03
2013-5-28,71,57,46,51,44,34,98,66,27,29.73,29.64,20,2,20,0.00
2013-5-29,64,53,42,53,44,34,92,71,39,29.81,29.58,18,1,18,0.08
2013-5-30,67,50,38,53,41,30,97,73,30,30.07,29.81,22,1,22,0.00
2013-5-31,74,57,39,49,38,29,92,57,20,30.16,30.07,10,0,10,0.00